Time;durP1;ratioP1;P1;durP2;ratioP2;P2;SDS_P1;SDS_P2;PMS_P1;PMS_P2;Temp;Humidity;BMP_temperature;BMP_pressure;BME280_temperature;BME280_humidity;BME280_pressure;Samples;Min_cycle;Max_cycle;Signal;HPM_P1;HPM_P2
2023/07/25 00:00:05;;;;;;;20.65;9.18;;;;;;;28.27;81.27;100789.50;5054850;28;65766;-37
2023/07/25 00:02:36;;;;;;;12.48;8.95;;;;;;;28.33;78.95;100782.47;5048301;28;70518;-37
2023/07/25 00:05:08;;;;;;;18.85;9.48;;;;;;;28.33;78.82;100787.88;5048970;28;66424;-37
2023/07/25 00:07:40;;;;;;;13.63;8.27;;;;;;;28.39;80.77;100794.31;5059307;28;69411;-37
2023/07/25 00:10:11;;;;;;;11.73;8.07;;;;;;;28.45;79.44;100799.75;5051629;28;66077;-37
2023/07/25 00:12:43;;;;;;;15.80;8.75;;;;;;;28.43;78.48;100788.34;5053850;28;69484;-36
2023/07/25 00:15:14;;;;;;;14.38;7.72;;;;;;;28.30;79.08;100766.69;5050532;28;65444;-37
2023/07/25 00:17:46;;;;;;;11.83;9.33;;;;;;;28.45;77.76;100799.75;5056106;28;70599;-39
2023/07/25 00:20:17;;;;;;;10.02;8.65;;;;;;;28.46;80.87;100809.50;5057086;28;65301;-35
2023/07/25 00:22:49;;;;;;;13.32;10.02;;;;;;;28.50;76.69;100799.97;5056558;28;70472;-35
2023/07/25 00:25:21;;;;;;;16.70;8.27;;;;;;;28.47;80.04;100800.38;5054933;28;66364;-35
2023/07/25 00:27:52;;;;;;;12.30;8.35;;;;;;;28.55;79.79;100803.91;5059189;28;70612;-35
2023/07/25 00:30:25;;;;;;;13.95;7.95;;;;;;;28.36;78.77;100776.69;5055567;28;66330;-36
2023/07/25 00:32:56;;;;;;;9.90;7.90;;;;;;;28.65;79.36;100798.94;5047901;28;69639;-36
2023/07/25 00:35:27;;;;;;;7.47;6.85;;;;;;;28.60;79.72;100793.31;5057405;28;65599;-37
2023/07/25 00:37:59;;;;;;;11.05;7.32;;;;;;;28.69;79.94;100798.31;5057282;28;69541;-36
2023/07/25 00:40:31;;;;;;;8.35;7.35;;;;;;;28.70;79.58;100797.28;5059218;28;67093;-36
2023/07/25 00:43:02;;;;;;;8.70;6.97;;;;;;;28.78;79.06;100800.78;5059068;28;70243;-37
2023/07/25 00:45:34;;;;;;;13.70;7.47;;;;;;;28.79;78.70;100806.00;5057414;28;65394;-38
2023/07/25 00:48:06;;;;;;;8.35;7.10;;;;;;;28.86;78.76;100804.13;5057549;28;70188;-37
2023/07/25 00:50:37;;;;;;;;;;;;;;;28.65;79.48;100807.03;5058498;28;66317;-38
2023/07/25 00:53:09;;;;;;;10.27;7.68;;;;;;;28.83;75.87;100791.03;5051271;28;69847;-38
2023/07/25 00:55:41;;;;;;;12.43;6.80;;;;;;;28.90;74.81;100794.56;5059776;28;65937;-38
2023/07/25 00:58:12;;;;;;;6.60;6.10;;;;;;;29.03;74.01;100809.97;5057367;28;69440;-37
2023/07/25 01:00:47;;;;;;;11.85;6.63;;;;;;;29.12;74.04;100814.09;5060531;28;66597;-38
2023/07/25 01:03:18;;;;;;;8.52;6.40;;;;;;;29.13;73.70;100812.22;5072806;28;71274;-38
2023/07/25 01:05:50;;;;;;;11.82;7.25;;;;;;;29.16;73.13;100814.50;5057732;28;66370;-37
2023/07/25 01:08:22;;;;;;;7.28;6.57;;;;;;;29.16;72.83;100811.81;5068252;28;69974;-37
2023/07/25 01:10:54;;;;;;;8.48;6.18;;;;;;;29.15;73.03;100796.66;5056991;28;66531;-36
2023/07/25 01:13:25;;;;;;;;;;;;;;;28.85;73.86;100818.66;5054658;28;70186;-36
2023/07/25 01:15:57;;;;;;;9.77;6.50;;;;;;;28.92;73.14;100781.69;5054371;28;66555;-37
2023/07/25 01:18:29;;;;;;;7.15;6.55;;;;;;;29.16;72.54;100799.13;5050213;28;70421;-37
2023/07/25 01:21:00;;;;;;;10.80;6.72;;;;;;;29.27;72.66;100816.56;5053153;28;66490;-37
2023/07/25 01:23:32;;;;;;;10.68;6.28;;;;;;;29.32;72.62;100821.34;5053408;28;69626;-37
2023/07/25 01:26:04;;;;;;;9.27;6.55;;;;;;;29.34;72.57;100821.97;5049611;28;66502;-38
2023/07/25 01:28:37;;;;;;;6.47;5.68;;;;;;;29.33;71.92;100826.53;5071501;28;69262;-37
2023/07/25 01:31:08;;;;;;;6.32;5.82;;;;;;;29.38;72.12;100829.44;5055644;28;66740;-36
2023/07/25 01:33:40;;;;;;;11.48;5.72;;;;;;;28.67;72.21;100715.91;5057079;28;70284;-36
2023/07/25 01:36:11;;;;;;;11.02;5.75;;;;;;;29.37;71.94;100833.19;5056470;28;66552;-36
2023/07/25 01:38:43;;;;;;;5.70;5.30;;;;;;;29.42;71.72;100834.41;5054432;28;70024;-37
2023/07/25 01:41:14;;;;;;;6.57;5.80;;;;;;;29.34;71.93;100828.19;5056728;28;66493;-37
2023/07/25 01:43:46;;;;;;;7.18;5.75;;;;;;;29.12;71.56;100794.38;5051441;28;69853;-37
2023/07/25 01:46:17;;;;;;;6.05;5.45;;;;;;;29.50;71.50;100853.09;5056829;28;66020;-38
2023/07/25 01:48:49;;;;;;;6.00;5.50;;;;;;;29.51;71.34;100846.66;5051514;28;69977;-37
2023/07/25 01:51:20;;;;;;;9.23;5.93;;;;;;;29.40;71.66;100827.34;5053305;28;65708;-37
2023/07/25 01:53:53;;;;;;;6.55;5.68;;;;;;;29.56;71.61;100845.00;5048241;28;69165;-37
2023/07/25 01:56:25;;;;;;;7.57;4.88;;;;;;;29.60;71.37;100853.50;5055579;28;65565;-39
2023/07/25 01:58:56;;;;;;;;;;;;;;;29.22;72.38;100835.28;5051840;28;69367;-37
2023/07/25 02:01:28;;;;;;;6.07;5.30;;;;;;;29.60;71.72;100864.31;5054846;28;66003;-38
2023/07/25 02:03:59;;;;;;;;;;;;;;;29.26;72.94;100849.22;5048968;28;69548;-37
2023/07/25 02:06:31;;;;;;;8.98;4.75;;;;;;;29.64;71.51;100848.50;5054229;28;66704;-39
2023/07/25 02:09:02;;;;;;;8.45;5.10;;;;;;;29.62;71.32;100846.00;5052414;28;70421;-37
2023/07/25 02:11:34;;;;;;;6.65;5.93;;;;;;;29.67;70.87;100840.84;5056272;28;66446;-36
2023/07/25 02:14:05;;;;;;;7.28;5.95;;;;;;;29.73;71.33;100850.78;5056762;28;70533;-37
2023/07/25 02:16:37;;;;;;;7.30;4.93;;;;;;;29.66;70.99;100835.63;5052197;28;66145;-37
2023/07/25 02:19:09;;;;;;;11.50;5.20;;;;;;;29.74;70.90;100849.72;5056794;28;69581;-37
2023/07/25 02:21:40;;;;;;;6.30;4.90;;;;;;;29.70;71.15;100820.63;5056854;28;66031;-37
2023/07/25 02:24:12;;;;;;;4.60;4.20;;;;;;;29.80;70.65;100832.66;5051165;28;69493;-37
2023/07/25 02:26:43;;;;;;;7.75;4.68;;;;;;;29.86;70.99;100838.25;5069015;28;66196;-38
2023/07/25 02:29:14;;;;;;;6.33;4.80;;;;;;;29.89;71.11;100840.53;5056105;28;70997;-38
2023/07/25 02:31:46;;;;;;;5.15;4.43;;;;;;;29.90;70.89;100834.09;5058098;28;65364;-37
2023/07/25 02:34:18;;;;;;;5.03;4.50;;;;;;;29.89;70.30;100819.72;5070726;28;70539;-37
2023/07/25 02:36:49;;;;;;;7.18;5.03;;;;;;;29.83;70.34;100810.59;5057500;28;65828;-37
2023/07/25 02:39:21;;;;;;;6.47;4.47;;;;;;;29.67;70.27;100777.81;5057242;28;70136;-37
2023/07/25 02:41:52;;;;;;;5.72;4.55;;;;;;;29.96;70.46;100806.19;5055205;28;66711;-36
2023/07/25 02:44:24;;;;;;;5.10;4.60;;;;;;;29.84;70.61;100785.22;5072647;28;69300;-37
2023/07/25 02:46:55;;;;;;;6.53;4.28;;;;;;;30.03;70.41;100805.09;5058113;28;66646;-38
2023/07/25 02:49:26;;;;;;;5.50;4.65;;;;;;;29.93;70.74;100787.69;5054613;28;69298;-37
2023/07/25 02:51:58;;;;;;;5.20;4.22;;;;;;;30.03;70.75;100804.25;5055149;28;66048;-37
2023/07/25 02:54:29;;;;;;;8.03;4.80;;;;;;;30.11;70.36;100817.53;5055405;28;69834;-37
2023/07/25 02:57:01;;;;;;;6.28;4.82;;;;;;;30.11;70.19;100814.00;5057352;28;66141;-36
2023/07/25 02:59:32;;;;;;;7.57;5.15;;;;;;;30.15;70.37;100813.34;5056088;28;70314;-37
2023/07/25 03:02:04;;;;;;;9.25;5.25;;;;;;;30.09;70.25;100792.59;5056602;28;66460;-37
2023/07/25 03:04:36;;;;;;;5.05;4.65;;;;;;;30.22;70.34;100802.50;5046537;28;70406;-37
2023/07/25 03:07:08;;;;;;;6.70;5.13;;;;;;;30.16;69.83;100787.94;5049383;28;66675;-38
2023/07/25 03:09:40;;;;;;;8.48;4.13;;;;;;;30.27;70.45;100808.94;5055618;28;69989;-38
2023/07/25 03:12:11;;;;;;;5.85;4.20;;;;;;;30.24;69.80;100787.72;5056717;28;66552;-37
2023/07/25 03:14:43;;;;;;;5.82;4.78;;;;;;;30.34;70.23;100805.34;5060892;28;70206;-37
2023/07/25 03:17:14;;;;;;;6.55;4.97;;;;;;;30.31;69.74;100795.78;5047922;28;65752;-38
2023/07/25 03:19:46;;;;;;;7.88;4.65;;;;;;;30.40;69.92;100809.91;5053435;28;69918;-37
2023/07/25 03:22:21;;;;;;;6.88;4.80;;;;;;;30.42;69.78;100813.19;5050993;28;65986;-36
2023/07/25 03:24:52;;;;;;;5.40;3.72;;;;;;;30.45;69.67;100807.34;5054475;28;70085;-38
2023/07/25 03:27:25;;;;;;;7.18;4.25;;;;;;;30.46;69.74;100807.13;5059278;28;66372;-40
2023/07/25 03:29:56;;;;;;;6.13;4.30;;;;;;;30.43;69.42;100777.81;5056552;28;69452;-37
2023/07/25 03:32:28;;;;;;;7.65;4.15;;;;;;;30.53;69.63;100793.53;5053939;28;66395;-37
2023/07/25 03:34:59;;;;;;;5.80;4.18;;;;;;;30.55;69.66;100783.34;5053832;28;69575;-38
2023/07/25 03:37:31;;;;;;;6.30;4.47;;;;;;;30.58;69.41;100782.88;5059640;28;65870;-37
2023/07/25 03:40:02;;;;;;;13.15;4.28;;;;;;;30.51;69.54;100763.19;5071396;28;69304;-37
2023/07/25 03:42:34;;;;;;;;;;;;;;;30.27;71.54;100790.00;5049051;28;65664;-37
2023/07/25 03:45:05;;;;;;;7.15;4.18;;;;;;;30.61;70.14;100779.72;5050599;28;69714;-37
2023/07/25 03:47:36;;;;;;;;;;;;;;;30.32;70.93;100775.00;5058937;28;66313;-37
2023/07/25 03:50:08;;;;;;;7.80;4.32;;;;;;;30.65;69.38;100780.16;5049126;28;69938;-37
2023/07/25 03:52:39;;;;;;;5.47;3.72;;;;;;;30.67;69.44;100768.03;5060714;28;66305;-37
2023/07/25 03:55:11;;;;;;;10.18;4.55;;;;;;;30.72;69.23;100778.19;5062012;28;69380;-37
2023/07/25 03:57:42;;;;;;;6.38;3.58;;;;;;;30.70;69.63;100759.47;5058439;28;66260;-37
2023/07/25 04:00:14;;;;;;;7.32;3.70;;;;;;;30.79;69.66;100753.78;5060884;28;70556;-37
2023/07/25 04:02:48;;;;;;;6.90;3.88;;;;;;;30.80;69.12;100755.47;5059630;28;65202;-38
2023/07/25 04:05:38;;;;;;;6.80;3.70;;;;;;;30.80;69.14;100756.28;5059902;28;69774;-37
2023/07/25 04:08:09;;;;;;;6.05;3.63;;;;;;;30.87;68.85;100761.63;5059572;28;65856;-37
2023/07/25 04:10:41;;;;;;;7.30;4.15;;;;;;;30.49;69.19;100684.91;5057221;28;70038;-37
2023/07/25 04:13:13;;;;;;;6.05;3.80;;;;;;;30.89;69.00;100732.44;5052650;28;66241;-37
2023/07/25 04:15:45;;;;;;;6.70;3.47;;;;;;;30.94;68.77;100727.19;5049929;28;69920;-37
2023/07/25 04:18:16;;;;;;;10.38;3.38;;;;;;;30.93;68.94;100728.25;5059087;28;66502;-38
2023/07/25 04:20:48;;;;;;;6.65;3.40;;;;;;;30.96;68.69;100738.63;5054450;28;70139;-39
2023/07/25 04:23:21;;;;;;;10.98;4.07;;;;;;;30.41;68.44;100639.16;5057933;28;66252;-37
2023/07/25 04:25:53;;;;;;;6.45;3.30;;;;;;;30.98;68.73;100714.88;5058102;28;69202;-37
2023/07/25 04:28:24;;;;;;;5.20;3.15;;;;;;;30.90;68.97;100707.03;5053116;28;65263;-38
2023/07/25 04:30:57;;;;;;;7.35;3.60;;;;;;;31.05;68.41;100722.91;5063354;28;70172;-36
2023/07/25 04:33:29;;;;;;;6.38;3.42;;;;;;;30.92;68.85;100696.78;5055458;28;66052;-38
2023/07/25 04:36:01;;;;;;;6.38;3.10;;;;;;;31.06;68.58;100706.41;5053589;28;70308;-38
2023/07/25 04:38:32;;;;;;;10.25;3.35;;;;;;;31.00;68.47;100685.66;5052143;28;65924;-38
2023/07/25 04:41:04;;;;;;;7.45;3.20;;;;;;;31.11;68.38;100698.44;5059024;28;69196;-38
2023/07/25 04:43:44;;;;;;;6.10;2.83;;;;;;;31.11;68.71;100687.59;5056603;28;66176;-37
2023/07/25 04:46:15;;;;;;;3.53;2.80;;;;;;;31.15;68.57;100694.25;5051832;28;70751;-40
2023/07/25 04:48:47;;;;;;;6.82;3.45;;;;;;;31.16;68.69;100682.34;5050671;28;66600;-38
2023/07/25 04:51:18;;;;;;;6.63;3.53;;;;;;;31.17;68.38;100680.44;5050004;28;69979;-39
2023/07/25 04:53:50;;;;;;;6.30;3.25;;;;;;;31.21;68.57;100675.41;5050627;28;65797;-38
2023/07/25 04:56:21;;;;;;;6.95;3.55;;;;;;;31.12;68.52;100656.75;5052652;28;69782;-39
2023/07/25 04:58:53;;;;;;;8.93;3.78;;;;;;;31.23;68.19;100667.88;5051855;28;66097;-37
2023/07/25 05:01:25;;;;;;;5.55;3.15;;;;;;;31.26;68.13;100678.25;5054169;28;70138;-38
2023/07/25 05:04:00;;;;;;;7.05;3.63;;;;;;;31.20;68.37;100662.91;5052989;28;66330;-37
2023/07/25 05:06:32;;;;;;;8.10;3.38;;;;;;;31.29;67.84;100666.97;5047760;28;70256;-38
2023/07/25 05:09:05;;;;;;;4.63;3.03;;;;;;;31.33;68.26;100662.75;5058835;28;65774;-37
2023/07/25 05:11:57;;;;;;;4.75;2.92;;;;;;;31.33;68.11;100662.75;5049665;28;70193;-37
2023/07/25 05:14:28;;;;;;;4.47;2.80;;;;;;;31.36;67.92;100662.31;5058448;28;66117;-38
2023/07/25 05:17:00;;;;;;;10.07;3.55;;;;;;;31.37;67.96;100650.41;5056492;28;69590;-39
2023/07/25 05:19:32;;;;;;;14.23;3.60;;;;;;;31.31;68.19;100627.72;5060014;28;65757;-39
2023/07/25 05:22:03;;;;;;;4.80;2.83;;;;;;;31.41;67.90;100640.78;5050858;28;69871;-37
2023/07/25 05:24:35;;;;;;;4.85;2.83;;;;;;;31.44;67.66;100647.63;5055484;28;66173;-38
2023/07/25 05:27:06;;;;;;;10.13;2.53;;;;;;;31.46;68.07;100649.06;5052629;28;69859;-39
2023/07/25 05:29:38;;;;;;;4.38;2.70;;;;;;;31.47;67.57;100637.13;5055972;28;66521;-36
2023/07/25 05:32:09;;;;;;;;;;;;;;;31.20;68.21;100641.22;5055796;28;70252;-36
2023/07/25 05:34:41;;;;;;;6.22;3.20;;;;;;;31.35;67.89;100611.84;5058257;28;67754;-39
2023/07/25 05:37:12;;;;;;;3.60;2.65;;;;;;;31.53;67.68;100652.47;5053578;28;69899;-38
2023/07/25 05:39:44;;;;;;;9.63;3.28;;;;;;;31.56;67.60;100629.50;5058702;28;65297;-38
2023/07/25 05:42:15;;;;;;;;;;;;;;;31.29;68.06;100605.47;5055311;28;69393;-37
2023/07/25 05:44:47;;;;;;;3.92;2.83;;;;;;;31.51;67.38;100594.97;5057046;28;66080;-37
2023/07/25 05:47:18;;;;;;;6.72;3.17;;;;;;;31.50;67.36;100582.47;5058812;28;69417;-37
2023/07/25 05:49:50;;;;;;;4.22;2.53;;;;;;;31.49;67.30;100575.41;5059013;28;66202;-37
2023/07/25 05:52:21;;;;;;;;;;;;;;;31.38;67.46;100604.13;5043802;28;69796;-36
2023/07/25 05:54:53;;;;;;;9.55;2.88;;;;;;;31.63;67.37;100586.88;5058594;28;66405;-37
2023/07/25 05:57:25;;;;;;;3.72;2.30;;;;;;;31.55;66.76;100569.03;5059592;28;69783;-38
2023/07/25 05:59:56;;;;;;;5.40;2.55;;;;;;;31.76;66.84;100597.50;5056262;28;65259;-39
2023/07/25 06:02:27;;;;;;;7.32;3.00;;;;;;;31.44;66.93;100534.59;5057934;28;70188;-37
2023/07/25 06:04:59;;;;;;;5.18;2.65;;;;;;;31.81;66.67;100591.38;5050602;28;65647;-38
2023/07/25 06:07:30;;;;;;;5.82;2.63;;;;;;;31.78;66.76;100589.13;5057983;28;70186;-37
2023/07/25 06:10:02;;;;;;;6.22;2.67;;;;;;;31.87;66.64;100587.72;5058078;28;65358;-38
2023/07/25 06:12:33;;;;;;;6.55;2.65;;;;;;;31.84;66.69;100566.47;5054656;28;70439;-39
2023/07/25 06:15:05;;;;;;;4.97;3.38;;;;;;;31.93;66.60;100586.81;5058057;28;66008;-39
2023/07/25 06:17:37;;;;;;;7.60;2.95;;;;;;;31.94;66.58;100577.63;5051630;28;70229;-39
2023/07/25 06:20:09;;;;;;;7.50;2.42;;;;;;;31.98;66.84;100580.69;5053978;28;65247;-37
2023/07/25 06:22:41;;;;;;;4.50;2.53;;;;;;;31.88;66.44;100556.00;5058095;28;69655;-38
2023/07/25 06:25:14;;;;;;;11.25;3.13;;;;;;;32.04;66.23;100575.16;5059083;28;65985;-38
2023/07/25 06:27:46;;;;;;;4.38;2.88;;;;;;;32.09;66.26;100573.59;5056224;28;71048;-39
2023/07/25 06:30:17;;;;;;;6.43;2.72;;;;;;;32.03;66.14;100549.06;5052671;28;65921;-38
2023/07/25 06:32:48;;;;;;;7.25;3.10;;;;;;;31.99;66.12;100537.06;5053126;28;70323;-38
2023/07/25 06:35:23;;;;;;;10.68;3.53;;;;;;;32.19;66.15;100557.56;5059272;28;66143;-37
2023/07/25 06:37:55;;;;;;;7.22;2.55;;;;;;;32.19;66.35;100535.84;5056774;28;70110;-38
2023/07/25 06:40:26;;;;;;;5.57;2.72;;;;;;;32.23;66.15;100531.59;5051157;28;66235;-37
2023/07/25 06:42:58;;;;;;;6.60;3.33;;;;;;;32.27;65.92;100527.34;5056808;28;70163;-36
2023/07/25 06:45:30;;;;;;;4.93;2.63;;;;;;;32.32;65.67;100526.63;5057652;28;65519;-37
2023/07/25 06:48:01;;;;;;;6.30;2.95;;;;;;;32.20;65.74;100504.94;5058320;28;70076;-38
2023/07/25 06:50:33;;;;;;;6.57;3.20;;;;;;;32.35;65.71;100516.13;5058907;28;66401;-37
2023/07/25 06:53:04;;;;;;;;;;;;;;;32.12;66.08;100524.28;5058962;28;70550;-38
2023/07/25 06:55:37;;;;;;;6.47;2.90;;;;;;;32.38;65.54;100523.78;5059672;28;65516;-37
2023/07/25 06:58:08;;;;;;;4.47;2.83;;;;;;;32.37;65.54;100522.13;5057918;28;70023;-38
2023/07/25 07:00:45;;;;;;;5.55;2.78;;;;;;;32.44;65.55;100528.25;5054392;28;65382;-38
2023/07/25 07:03:16;;;;;;;5.55;2.60;;;;;;;32.40;65.43;100516.25;5059641;28;70161;-39
2023/07/25 07:05:57;;;;;;;9.52;3.63;;;;;;;32.10;65.17;100521.00;5056308;28;65630;-38
2023/07/25 07:08:29;;;;;;;6.88;3.05;;;;;;;32.28;65.09;100526.28;5049486;28;70411;-37
2023/07/25 07:11:00;;;;;;;6.20;3.28;;;;;;;32.16;64.82;100520.06;5057162;28;65927;-37
2023/07/25 07:13:31;;;;;;;7.75;3.63;;;;;;;32.54;64.99;100582.00;5060145;28;70179;-37
2023/07/25 07:16:03;;;;;;;5.78;2.53;;;;;;;32.52;65.40;100583.31;5060679;28;66163;-38
2023/07/25 07:18:35;;;;;;;12.27;3.70;;;;;;;32.49;65.64;100569.13;5054075;28;69998;-38
2023/07/25 07:21:07;;;;;;;9.80;3.38;;;;;;;32.40;66.05;100565.09;5060448;28;65395;-36
2023/07/25 07:23:39;;;;;;;14.38;3.95;;;;;;;32.57;65.91;100580.66;5058837;28;70150;-38
2023/07/25 07:26:10;;;;;;;6.22;3.08;;;;;;;32.54;66.36;100562.13;5056309;28;65359;-37
2023/07/25 07:28:42;;;;;;;8.27;3.00;;;;;;;32.56;66.58;100557.31;5060142;28;69241;-37
2023/07/25 07:31:15;;;;;;;11.40;3.20;;;;;;;32.46;66.60;100525.34;5054584;28;65554;-39
2023/07/25 07:33:46;;;;;;;10.07;3.45;;;;;;;32.40;66.61;100508.09;5059468;28;70089;-37
2023/07/25 07:36:18;;;;;;;3.30;2.70;;;;;;;32.54;66.59;100524.13;5057764;28;66559;-38
2023/07/25 07:38:49;;;;;;;5.07;3.03;;;;;;;32.11;66.69;100458.34;5057101;28;69217;-39
2023/07/25 07:41:20;;;;;;;4.22;2.67;;;;;;;32.46;66.52;100504.44;5048841;28;66023;-38
2023/07/25 07:43:52;;;;;;;5.15;2.95;;;;;;;32.47;66.16;100492.50;5055340;28;69231;-38
2023/07/25 07:46:23;;;;;;;12.48;3.40;;;;;;;32.42;66.26;100480.69;5053925;28;65874;-38
2023/07/25 07:48:56;;;;;;;7.85;3.10;;;;;;;32.44;66.19;100486.72;5059651;28;70032;-38
2023/07/25 07:51:28;;;;;;;9.15;3.15;;;;;;;32.40;65.88;100472.81;5058663;28;66338;-38
2023/07/25 07:54:00;;;;;;;3.58;2.33;;;;;;;32.43;65.59;100477.75;5057101;28;70504;-37
2023/07/25 07:56:31;;;;;;;11.82;2.88;;;;;;;32.47;65.44;100492.50;5057195;28;66755;-39
2023/07/25 07:59:02;;;;;;;;;;;;;;;32.20;65.93;100503.03;5057395;28;70406;-38
2023/07/25 08:01:34;;;;;;;6.70;3.17;;;;;;;32.42;65.78;100508.66;5055386;28;65646;-38
2023/07/25 08:04:11;;;;;;;6.47;3.20;;;;;;;32.44;65.58;100506.53;5055609;28;70313;-39
2023/07/25 08:06:42;;;;;;;5.60;3.10;;;;;;;32.45;65.53;100510.91;5058421;28;66566;-39
2023/07/25 08:09:13;;;;;;;6.88;3.78;;;;;;;32.37;65.73;100503.13;5054263;28;69939;-37
2023/07/25 08:11:45;;;;;;;4.72;3.30;;;;;;;32.27;65.70;100490.19;5057258;28;65365;-37
2023/07/25 08:14:16;;;;;;;5.85;3.10;;;;;;;32.40;65.90;100505.38;5052831;28;69224;-38
2023/07/25 08:16:48;;;;;;;4.15;3.00;;;;;;;32.39;65.78;100511.03;5049441;28;66315;-38
2023/07/25 08:19:20;;;;;;;8.05;3.78;;;;;;;32.34;65.84;100500.88;5058810;28;69867;-38
2023/07/25 08:21:54;;;;;;;7.63;3.63;;;;;;;32.33;65.93;100506.56;5056468;28;66150;-38
2023/07/25 08:24:25;;;;;;;7.90;3.50;;;;;;;32.21;65.89;100485.72;5058629;28;70571;-38
2023/07/25 08:26:57;;;;;;;7.82;3.90;;;;;;;32.36;65.90;100512.34;5057869;28;65293;-39
2023/07/25 08:29:29;;;;;;;4.50;3.92;;;;;;;32.29;65.88;100506.25;5052887;28;70216;-38
2023/07/25 08:32:00;;;;;;;11.13;4.13;;;;;;;32.32;66.02;100521.19;5053835;28;66308;-39
2023/07/25 08:34:31;;;;;;;7.22;4.07;;;;;;;32.31;66.33;100527.69;5059716;28;69960;-39
2023/07/25 08:37:04;;;;;;;8.13;4.18;;;;;;;32.30;66.34;100531.47;5053516;28;66342;-37
2023/07/25 08:39:35;;;;;;;5.45;3.55;;;;;;;32.29;66.41;100519.81;5055468;28;69386;-38
2023/07/25 08:42:15;;;;;;;10.35;4.97;;;;;;;31.75;66.57;100445.84;5059628;28;66590;-37
2023/07/25 08:44:52;;;;;;;4.43;3.47;;;;;;;31.80;66.84;100478.53;5055782;28;69295;-39
2023/07/25 08:47:28;;;;;;;5.82;4.38;;;;;;;31.74;67.86;100471.34;5057505;28;65568;-37
2023/07/25 08:50:04;;;;;;;5.60;3.75;;;;;;;31.57;68.25;100442.22;5055900;28;70136;-38
2023/07/25 08:52:36;;;;;;;6.63;4.32;;;;;;;32.12;68.33;100529.72;5057784;28;66569;-37
2023/07/25 08:55:08;;;;;;;6.95;4.20;;;;;;;31.91;68.56;100485.00;5054396;28;69446;-37
2023/07/25 08:57:42;;;;;;;10.35;4.30;;;;;;;31.95;69.04;100486.19;5059269;28;66333;-38
2023/07/25 09:00:14;;;;;;;7.60;3.47;;;;;;;31.95;69.47;100503.31;5059042;28;69530;-39
2023/07/25 09:02:48;;;;;;;8.63;4.13;;;;;;;31.99;69.74;100490.94;5055525;28;66742;-37
2023/07/25 09:05:23;;;;;;;6.93;3.53;;;;;;;31.86;69.82;100493.84;5053528;28;70180;-38
2023/07/25 09:07:59;;;;;;;10.98;5.93;;;;;;;31.87;69.86;100509.06;5050862;28;65390;-37
2023/07/25 09:10:31;;;;;;;6.97;4.22;;;;;;;31.86;70.12;100507.41;5057798;28;69516;-37
2023/07/25 09:13:02;;;;;;;5.72;4.47;;;;;;;31.89;69.93;100515.06;5052719;28;65552;-39
2023/07/25 09:15:34;;;;;;;8.77;4.72;;;;;;;31.82;70.72;100509.78;5053311;28;69897;-38
2023/07/25 09:18:05;;;;;;;11.02;5.45;;;;;;;31.83;70.38;100511.41;5050064;28;65655;-37
2023/07/25 09:20:38;;;;;;;11.55;5.32;;;;;;;31.82;70.39;100507.06;5054885;28;70299;-38
2023/07/25 09:23:18;;;;;;;8.43;5.45;;;;;;;31.74;70.92;100512.84;5049392;28;66726;-38
2023/07/25 09:25:52;;;;;;;5.82;4.25;;;;;;;31.75;71.13;100513.66;5053657;28;69066;-38
2023/07/25 09:28:23;;;;;;;7.88;4.65;;;;;;;31.72;71.10;100508.72;5053611;28;65499;-36
2023/07/25 09:30:54;;;;;;;7.53;4.10;;;;;;;31.69;71.11;100501.03;5058443;28;70309;-37
2023/07/25 09:33:28;;;;;;;5.65;3.90;;;;;;;30.69;70.96;100346.25;5051092;28;66351;-38
2023/07/25 09:35:59;;;;;;;8.13;4.53;;;;;;;31.70;70.95;100505.41;5052707;28;70848;-36
2023/07/25 09:38:33;;;;;;;6.72;4.53;;;;;;;31.51;70.84;100481.13;5052723;28;66358;-37
2023/07/25 09:41:05;;;;;;;4.50;3.65;;;;;;;31.69;70.71;100514.59;5048220;28;70319;-38
2023/07/25 09:43:39;;;;;;;8.63;3.90;;;;;;;31.69;71.05;100510.00;5049943;28;65999;-40
2023/07/25 09:46:11;;;;;;;6.18;4.30;;;;;;;31.67;71.32;100495.03;5054252;28;70183;-37
2023/07/25 09:48:47;;;;;;;8.55;4.20;;;;;;;31.66;71.50;100517.78;5053450;28;65733;-37
2023/07/25 09:51:19;;;;;;;5.13;4.10;;;;;;;31.58;70.80;100511.63;5052684;28;70387;-42
2023/07/25 09:53:55;;;;;;;6.80;3.95;;;;;;;31.38;72.08;100498.41;5036069;28;66208;-37
2023/07/25 09:56:27;;;;;;;4.80;3.70;;;;;;;31.35;72.96;100546.81;5050099;28;70229;-37
2023/07/25 09:58:59;;;;;;;7.68;4.03;;;;;;;31.24;74.21;100558.44;5051424;28;66243;-38
2023/07/25 10:01:38;;;;;;;12.55;4.72;;;;;;;31.13;74.36;100551.91;5052415;28;69138;-39
2023/07/25 10:04:12;;;;;;;7.40;4.63;;;;;;;31.08;75.08;100568.03;5054516;28;67223;-37
2023/07/25 10:06:44;;;;;;;9.10;4.40;;;;;;;31.07;74.96;100578.03;5052243;28;69520;-38
2023/07/25 10:09:16;;;;;;;4.88;4.15;;;;;;;31.02;75.84;100585.22;5053034;28;67294;-38
2023/07/25 10:11:50;;;;;;;6.07;4.57;;;;;;;30.90;75.99;100587.88;5052191;28;70495;-37
2023/07/25 10:14:22;;;;;;;8.23;4.85;;;;;;;30.89;76.67;100622.22;5049758;28;66031;-37
2023/07/25 10:16:54;;;;;;;6.97;4.38;;;;;;;30.93;77.14;100636.97;5052499;28;69062;-37
2023/07/25 10:19:25;;;;;;;5.43;4.85;;;;;;;30.93;77.36;100652.41;5054258;28;66758;-37
2023/07/25 10:21:57;;;;;;;9.63;4.78;;;;;;;30.90;77.46;100659.09;5054956;28;69630;-37
2023/07/25 10:24:34;;;;;;;5.45;3.72;;;;;;;30.87;77.90;100692.06;5057969;28;66225;-38
2023/07/25 10:27:11;;;;;;;6.32;4.00;;;;;;;30.69;77.78;100657.63;5056738;28;69988;-37
2023/07/25 10:29:45;;;;;;;8.27;4.43;;;;;;;30.88;77.94;100709.13;5050820;28;66191;-37
2023/07/25 10:32:21;;;;;;;9.20;4.68;;;;;;;30.84;78.08;100716.03;5055843;28;70320;-39
2023/07/25 10:35:05;;;;;;;9.90;4.18;;;;;;;30.86;78.23;100727.47;5054421;28;65996;-40
2023/07/25 10:37:43;;;;;;;10.15;3.80;;;;;;;30.86;78.10;100732.91;5055325;28;69503;-40
2023/07/25 10:40:17;;;;;;;6.35;3.55;;;;;;;30.82;78.55;100735.22;5056010;28;65940;-40
2023/07/25 10:42:49;;;;;;;7.43;4.15;;;;;;;30.86;78.63;100727.47;5056881;28;70813;-39
2023/07/25 10:45:49;;;;;;;12.30;4.88;;;;;;;30.17;78.71;100626.44;5059499;28;65416;-38
2023/07/25 10:48:34;;;;;;;8.65;4.78;;;;;;;30.61;78.20;100689.56;5057482;28;70453;-41
2023/07/25 10:51:07;;;;;;;14.10;5.25;;;;;;;31.08;75.57;100704.31;5053826;28;66113;-39
2023/07/25 10:53:39;;;;;;;11.90;5.30;;;;;;;31.16;75.01;100703.19;5058665;28;69884;-40
2023/07/25 10:56:12;;;;;;;13.57;5.35;;;;;;;31.00;78.27;100712.72;5058092;28;66724;-41
2023/07/25 10:59:06;;;;;;;12.90;5.57;;;;;;;30.77;79.12;100699.84;5059126;28;68962;-42
2023/07/25 11:01:44;;;;;;;11.85;5.38;;;;;;;30.82;79.42;100693.78;5057815;28;66549;-40
2023/07/25 11:04:24;;;;;;;19.50;6.68;;;;;;;30.72;79.86;100691.53;5060259;28;70180;-40
2023/07/25 11:07:09;;;;;;;12.35;6.07;;;;;;;30.28;79.58;100599.56;5051038;28;66446;-40
2023/07/25 11:09:45;;;;;;;14.10;6.03;;;;;;;30.71;78.18;100639.28;5048757;28;69327;-40
2023/07/25 11:12:23;;;;;;;10.30;5.47;;;;;;;30.79;77.08;100653.59;5055362;28;66710;-40
2023/07/25 11:14:55;;;;;;;11.85;5.05;;;;;;;31.00;76.06;100669.41;5057078;28;70405;-40
2023/07/25 11:17:30;;;;;;;7.18;4.80;;;;;;;31.08;75.66;100671.81;5046956;28;66225;-40
2023/07/25 11:20:16;;;;;;;10.10;4.93;;;;;;;31.06;76.02;100681.22;5058808;28;70453;-39
2023/07/25 11:22:53;;;;;;;9.73;5.30;;;;;;;30.55;75.11;100574.91;5048831;28;65739;-40
2023/07/25 11:25:25;;;;;;;11.82;5.57;;;;;;;31.15;75.20;100672.56;5052900;28;70322;-40
2023/07/25 11:27:57;;;;;;;12.52;5.32;;;;;;;31.18;74.56;100682.13;5051393;28;65631;-42
2023/07/25 11:30:29;;;;;;;10.80;5.45;;;;;;;31.16;74.85;100679.63;5053849;28;69850;-41
2023/07/25 11:33:00;;;;;;;;;;;;;;;30.83;75.98;100684.59;5050069;28;66538;-41
2023/07/25 11:35:31;;;;;;;6.15;4.93;;;;;;;31.11;75.04;100676.75;5057932;28;70342;-39
2023/07/25 11:38:03;;;;;;;6.97;5.28;;;;;;;31.15;74.87;100683.41;5061780;28;65945;-41
2023/07/25 11:40:35;;;;;;;8.40;5.15;;;;;;;31.19;74.21;100681.06;5057597;28;70225;-44
2023/07/25 11:43:13;;;;;;;7.05;5.20;;;;;;;30.90;74.56;100642.03;5057506;28;66191;-41
2023/07/25 11:45:46;;;;;;;7.95;5.63;;;;;;;31.19;74.27;100683.75;5058321;28;69706;-42
2023/07/25 11:48:20;;;;;;;8.35;5.60;;;;;;;31.01;74.40;100649.41;5056585;28;65772;-40
2023/07/25 11:50:52;;;;;;;8.30;5.38;;;;;;;31.17;73.77;100664.19;5056647;28;69975;-40